Jackpot

Texas Poker Multi Jackpot System

Kini Telah hadir Jackpot SUPER ROYAL FLUSH

Kini Telah hadir Jackpot 2000 (khusus table VIP keatas).

Ikutilah global jackpot yang tersedia di system kami, dengan system jackpot terbaru dan pertama di indonesia, anda dapat membeli jackpot dengan harga 100 rupiah saja dan menangkan hadiahnya hingga puluhan juta rupiah.

Jackpot bukanlah suatu keharusan untuk dibeli, namun kami memberikan suatu fitur tambahan untuk member tercinta dari www.sentanapoker.net.

Terdapat tiga pilihan harga jackpot yang bisa anda beli yaitu :100,500,1000 dan 2000(khusus table VIP Keatas) rupiah.

Hadiah dari Multi jackpot system www.sentanapoker.net

  1. full house x 10 harga jackpot yang anda beli.
      (contoh:anda membeli 1000 maka:1000 X10 = 10.000)
  2. four of kind x 250 harga jackpot yang anda beli
      (contoh:anda membeli 1000 maka:1000 X250 = 250.000)
  3. Straight flush x 1200
      (contoh:anda membeli 1000 maka:1000 X1200 = 1.200.000)
  4. Royal flush x 10000 harga jackpot yang anda beli
      (contoh:anda membeli 1000 maka:1000 X10000 = 10.000.000)
  5. SUPER ROYAL FLUSH x 30000 harga jackpot yang anda beli
      (contoh:anda membeli 1000 maka:1000 X30000 = 30.000.000)

Kondisi kartu

  1. full house adalah kondisi kartu dimana kartu anda dan kartu tengah dengan total 7 kartu bisa mendapatkan nilai 5 kartu dengan kombinasi 1 tris(three of kind) dan 1 pair, contoh 3 kartu 10 dan 2 kartu 5
  2. Four of kind adalah kondisi kartu dimana kartu anda dan kartu tengah dengan total 7 kartu bisa mendapatkan nilai 5 kartu dengan kombinasi 4 kartu yang sama jumlah dan 1 kartu apapun juga contoh anda mendapatkan 4 buah kartu angka 3 dan 1 kartu apapun.
  3. Staright flush adalah kondisi kartu dimana kartu anda dan kartu tengah dengan total 7 kartu bisa mendapatkan nilai 5 kartu dengan kombinasi seri / staright dengan kembang yang sama contoh : urutan kartu dari angka 5, 6, 7, 8 , 9 10 dengan kembang yg sama misalnya as hati
  4. Royal flush adalah kondisi kartu dimana kartu anda dan kartu tengah dengan total 7 kartu bisa mendapatkan nilai 5 kartu dengan kombinasi seri / staright dengan kembang yang sama tetapi kartu tersebut haruslah dimulai dari 10. contoh 10, Queen, Jack, King dan aces dengan kembang yang sama
  5. Super Royal flush adalah kondisi kartu dimana Kedua kartu anda digabung dengan 3 kartu pertama meja haruslah royal flush. contoh kartu anda 10,Queen kembang sama dan 3 kartu pertama meja adalah Jack, King dan aces dengan kembang yang sama

Demikian adalah penjelasan dari Multi Jackpot www.sentanapoker.net terima kasih dan selamat bermain salam hoki dari kami

Texas Poker Jackpot Winner

TOP SUPER ROYAL FLUSH
No.TanggalNamaPriceWin
118/01 22:07PHOTEN9Super Royal flush3,000,000
218/01 19:56JR270186Super Royal flush15,000,000
318/01 11:15VERY90Super Royal flush3,000,000
418/01 10:09B904154ESuper Royal flush15,000,000
517/01 22:46GOLOK_JRZSuper Royal flush30,000,000
TOP ROYAL FLUSH
No.TanggalNamaPriceWin
119/01 02:55AQ_AKRoyal flush5,000,000
219/01 01:44JIDO04Royal flush5,000,000
319/01 01:19LARFA12Royal flush1,000,000
419/01 01:05HELLENIZRoyal flush5,000,000
519/01 00:43V9FDPWQVQSRoyal flush1,000,000
TOP STRAIGHT FLUSH
No.TanggalNamaPriceWin
119/01 03:02PAK_DOLLStraight Flush120,000
219/01 02:59ACONEStraight Flush120,000
319/01 02:59T4DMAKANSABALIKStraight Flush600,000
419/01 02:59CUCUNEGEDIStraight Flush600,000
519/01 02:57PENYU3Straight Flush600,000
LATEST JACKPOT
No.TanggalNamaPriceWin
119/01 03:03MIENAS88Full House1,000
219/01 03:03CHAFES16Full House5,000
319/01 03:03MANYO907Full House1,000
419/01 03:03S1NCH4N_Full House1,000
519/01 03:03KELINCI_99Full House1,000
619/01 03:03GANIF77Full House5,000
719/01 03:03K4NG44NFull House1,000
819/01 03:03BENTO999Full House1,000
919/01 03:03TSU55Full House10,000
1019/01 03:03MUJUAH_Full House20,000
1119/01 03:03TIOBROTOFull House5,000
1219/01 03:03CHAN899Full House10,000
1319/01 03:03CEPV1T9QXCFull House10,000
1419/01 03:03MANUTD69Full House20,000
1519/01 03:03DWBTGEHE57Full House1,000
1619/01 03:03MALEKEITHFull House1,000
1719/01 03:03AJUND123Full House1,000
1819/01 03:03D0NALD0Full House10,000
1919/01 03:03CAMPHEI07Full House10,000
2019/01 03:03AWAKGAM7Full House10,000
2119/01 03:03SHIO88Full House1,000
2219/01 03:03DATUK9898Full House1,000
2319/01 03:03JULNIFull House5,000
2419/01 03:03AA1A2933Full House1,000
2519/01 03:03KADIMABFull House5,000
2619/01 03:03TEMPATUANGFull House1,000
2719/01 03:03BM3260Full House1,000
2819/01 03:03AC27EB55Four Of A Kind25,000
2919/01 03:03MITSUBISIFour Of A Kind25,000
3019/01 03:02WAWA63Full House1,000
3119/01 03:02CINDY_JPFull House5,000
3219/01 03:02YAKUB10Full House1,000
3319/01 03:02CHOBA71Full House5,000
3419/01 03:02ASOKABFull House5,000
3519/01 03:02T4R1KTRU5Full House5,000
3619/01 03:02DESI181012Full House1,000
3719/01 03:02JACOB86Full House10,000
3819/01 03:02BADBOY002Full House5,000
3919/01 03:02PAK_DOLLStraight Flush120,000
4019/01 03:02VAZM1CW6H6Four Of A Kind25,000
4119/01 03:02BOCCUTFull House5,000
4219/01 03:02BUULZFull House1,000
4319/01 03:02GHOCHIN88Full House5,000
4419/01 03:02W4YH4YFull House1,000
4519/01 03:02NOUTA05Full House5,000
4619/01 03:02CASTER90Full House1,000
4719/01 03:02ZALT1307Full House5,000
4819/01 03:02ANA11Full House5,000
4919/01 03:02HLW7J2K64KFull House5,000
5019/01 03:02HEJOBOTOL4Full House5,000

Domino Multi Jackpot System

Ikutilah global jackpot yang tersedia di system kami, dengan system jackpot terbaru dan pertama di indonesia, anda dapat membeli jackpot dengan harga 100 rupiah saja dan menangkan hadiahnya hingga puluhan juta rupiah.

Jackpot bukanlah suatu keharusan untuk dibeli, namun kami memberikan suatu fitur tambahan untuk member tercinta dari www.sentanapoker.net.

Terdapat tiga pilihan harga jackpot yang bisa anda beli yaitu :100,500 dan 1000 rupiah.

Hadiah dari Multi jackpot system www.sentanapoker.net

  1. Murni Kecil x 50 harga jackpot yang anda beli.
      (contoh:anda membeli 1000 maka:1000 X 50 = 50.000)
  2. Murni Besar x 50 harga jackpot yang anda beli
      (contoh:anda membeli 1000 maka:1000 X 50 = 50.000)
  3. BALAK x 100 harga jackpot yang anda beli
      (contoh:anda membeli 1000 maka:1000 X 100 = 100.000)
  4. ENAM DEWA x 6666 harga jackpot yang anda beli
      (contoh:anda membeli 1000 maka:1000 X 6666 = 6.666.000)

Demikian adalah penjelasan dari Multi Jackpot www.sentanapoker.net terima kasih dan selamat bermain salam hoki dari kami

Domino Jackpot Winner

TOP ENAM DEWA
No.TanggalNamaPriceWin
119/01 01:36THEMEZ72murni enam6,666,000
219/01 01:24PIC_SHUITmurni enam3,333,000
319/01 00:49M3R4H99murni enam6,666,000
418/01 23:49FLUS85murni enam3,333,000
518/01 21:54LANCIK33murni enam6,666,000
TOP BALAK
No.TanggalNamaPriceWin
119/01 03:03ANONYM0USbalak50,000
219/01 03:00BU53RSDSbalak50,000
319/01 03:00NIROCK22balak50,000
419/01 02:55RIANAJAbalak100,000
519/01 02:55DENSUS8888balak50,000
LATEST JACKPOT
No.TanggalNamaPriceWin
119/01 03:03ANONYM0USbalak50,000
219/01 03:03MRLOCO07murni besar50,000
319/01 03:02KOMPENI_murni kecil50,000
419/01 03:02DINUT99murni kecil25,000
519/01 03:02PEPONGmurni besar25,000
619/01 03:00BU53RSDSbalak50,000
719/01 03:00MUJUR188murni besar50,000
819/01 03:00NIROCK22balak50,000
919/01 03:00AHEN222murni besar25,000
1019/01 02:58TUANBAJANKmurni besar5,000
1119/01 02:57PHAET22murni kecil50,000
1219/01 02:56DWBTUSEI45murni besar50,000
1319/01 02:55GASVOLTmurni kecil5,000
1419/01 02:55RIANAJAbalak100,000
1519/01 02:55DENSUS8888balak50,000
1619/01 02:55ZAKI112206murni besar50,000
1719/01 02:55KOMPENI_balak100,000
1819/01 02:55RX0FBTZQDImurni besar25,000
1919/01 02:54JAKCPOY100murni besar25,000
2019/01 02:54UMIUMI12murni besar5,000
2119/01 02:54ADFGHAbalak50,000
2219/01 02:52RIO123456murni kecil25,000
2319/01 02:52ABU877murni besar50,000
2419/01 02:52GASVOLTmurni kecil5,000
2519/01 02:51T3G4_BGTbalak100,000
2619/01 02:50FOLOFAKE99murni besar5,000
2719/01 02:50KENTON234balak10,000
2819/01 02:50NABIRA007murni besar5,000
2919/01 02:50ABU877murni kecil50,000
3019/01 02:49M3T4LIbalak10,000
3119/01 02:49TOMTOM73murni besar25,000
3219/01 02:48CF114196murni besar5,000
3319/01 02:47ANTIMENANGmurni besar5,000
3419/01 02:47CHRESmurni besar50,000
3519/01 02:47MBAHNE_WDmurni besar25,000
3619/01 02:47MERCON10murni kecil25,000
3719/01 02:46IDUNG861murni besar5,000
3819/01 02:46DDW7Nmurni kecil5,000
3919/01 02:45SUMATRA99balak100,000
4019/01 02:44MRLOCO07balak50,000
4119/01 02:44QVCZ66UA7Dmurni kecil50,000
4219/01 02:44CUM21murni besar25,000
4319/01 02:43RISNA96murni besar5,000
4419/01 02:43MERCI1988murni besar50,000
4519/01 02:42IINK99murni kecil50,000
4619/01 02:41ZHORO126murni besar5,000
4719/01 02:41JODIAN99murni kecil5,000
4819/01 02:41DENDIK72murni kecil25,000
4919/01 02:41ADUHAI99murni kecil25,000
5019/01 02:40AAAYYYYmurni kecil25,000

Ceme Multi Jackpot System

Jackpot dilihat dari gabungan kartu pemain dengan kartu bandar. Bandar harus membeli jackpot sebanyak jumlah player yang sedang duduk. Sebagai contoh bila terdapat 3 pemain duduk bermain, dan bandar memutuskan untuk membeli jackpot Rp 1.000, maka pada periode tersebut bandar akan membeli jackpot sebanyak 3xRp1.000 = Rp3.000.

Jackpot bukanlah suatu keharusan untuk dibeli, namun kami memberikan suatu fitur tambahan untuk member tercinta dari www.sentanapoker.net.

Terdapat tiga pilihan harga jackpot yang bisa anda beli yaitu :100,500 dan 1000 rupiah.

Hadiah dari Multi jackpot system www.sentanapoker.net

  1. Murni Kecil x 50 harga jackpot yang anda beli.
      (contoh:anda membeli 1000 maka:1000 X 50 = 50.000)
  2. Murni Besar x 50 harga jackpot yang anda beli
      (contoh:anda membeli 1000 maka:1000 X 50 = 50.000)
  3. BALAK x 200 harga jackpot yang anda beli
      (contoh:anda membeli 1000 maka:1000 X 200 = 200.000)
  4. ENAM DEWA x 6666 harga jackpot yang anda beli
      (contoh:anda membeli 1000 maka:1000 X 6666 = 6.666.000)

Demikian adalah penjelasan dari Multi Jackpot www.sentanapoker.net terima kasih dan selamat bermain salam hoki dari kami

Ceme Jackpot Winner

TOP ENAM DEWA
No.TanggalNamaPriceWin
119/01 02:20KUCROT33murni enam6,666,000
219/01 02:18KBK1NGBKmurni enam6,666,000
319/01 01:59Y1J3YFX04Qmurni enam6,666,000
419/01 01:31NENNEmurni enam6,666,000
519/01 01:23FRUN89murni enam6,666,000
TOP BALAK
No.TanggalNamaPriceWin
119/01 03:03CWLEMBURbalak200,000
219/01 03:02DEWA0P4Sbalak100,000
319/01 03:02NARK03balak100,000
419/01 03:02BIMBOYSSSbalak200,000
519/01 03:02KRISTINA27balak20,000
LATEST JACKPOT
No.TanggalNamaPriceWin
119/01 03:03CWLEMBURbalak200,000
219/01 03:03CJTTTTmurni besar25,000
319/01 03:03PK26AYmurni besar25,000
419/01 03:02DEWA0P4Sbalak100,000
519/01 03:02EGTH_1976murni kecil5,000
619/01 03:02NARK03balak100,000
719/01 03:02BIMBOYSSSbalak200,000
819/01 03:02KRISTINA27balak20,000
919/01 03:02BIMBOYSSSmurni kecil50,000
1019/01 03:02G4DZUL27murni kecil50,000
1119/01 03:02MITAOCT3murni kecil5,000
1219/01 03:02BOSBOM59balak20,000
1319/01 03:01KOCHY6767murni besar25,000
1419/01 03:01ASTRI18balak100,000
1519/01 03:00CIPLING_9murni besar50,000
1619/01 03:00SHEMAJAHmurni besar25,000
1719/01 03:00DESTIANI23murni kecil50,000
1819/01 03:00KRISTINA27balak20,000
1919/01 03:00DOZER29balak100,000
2019/01 02:59SUS58murni kecil50,000
2119/01 02:59PRAGIGImurni besar50,000
2219/01 02:59J0L0D0NGmurni besar5,000
2319/01 02:59BARDOSmurni kecil50,000
2419/01 02:58LE30WCZQTOmurni besar50,000
2519/01 02:58NATHAN97murni kecil50,000
2619/01 02:58PRAGIGImurni kecil50,000
2719/01 02:58ARPLO5murni besar25,000
2819/01 02:58DIKDAmurni besar5,000
2919/01 02:57KUPON888murni kecil50,000
3019/01 02:57DF978murni kecil50,000
3119/01 02:57PRAGIGImurni kecil50,000
3219/01 02:57J0L0D0NGmurni kecil5,000
3319/01 02:57PRAGIGImurni kecil50,000
3419/01 02:57DWBTROBY38murni besar25,000
3519/01 02:56TAMPAN14balak20,000
3619/01 02:56OCEETmurni kecil5,000
3719/01 02:55CJTTTTmurni besar25,000
3819/01 02:55MARDA32murni kecil5,000
3919/01 02:55ZADHA01murni besar25,000
4019/01 02:55BIGTIILmurni besar5,000
4119/01 02:55B0SINULbalak200,000
4219/01 02:55AMBRIAbalak200,000
4319/01 02:54AK666murni besar50,000
4419/01 02:54STAND8murni kecil5,000
4519/01 02:54LIONGFU888balak200,000
4619/01 02:54CUNDINK0murni besar50,000
4719/01 02:54LATJALITmurni besar50,000
4819/01 02:54KALALO93murni kecil25,000
4919/01 02:54KALALO93murni kecil25,000
5019/01 02:54LE30WCZQTObalak200,000